Time;durP1;ratioP1;P1;durP2;ratioP2;P2;SDS_P1;SDS_P2;PMS_P1;PMS_P2;Temp;Humidity;BMP_temperature;BMP_pressure;BME280_temperature;BME280_humidity;BME280_pressure;Samples;Min_cycle;Max_cycle;Signal;HPM_P1;HPM_P2
2021/12/02 00:01:21;;;;;;;27.58;22.00;;;;;;;;;;5047288;28;20439;-84
2021/12/02 00:03:49;;;;;;;29.75;22.35;;;;;;;;;;5047527;28;20922;-84
2021/12/02 00:06:19;;;;;;;27.63;21.70;;;;;;;;;;5044434;28;20458;-84
2021/12/02 00:08:47;;;;;;;26.58;21.67;;;;;;;;;;5047301;28;20407;-84
2021/12/02 00:11:14;;;;;;;26.83;21.17;;;;;;;;;;5047591;28;20411;-84
2021/12/02 00:13:50;;;;;;;27.90;21.95;;;;;;;;;;5047194;28;20428;-85
2021/12/02 00:16:22;;;;;;;25.92;21.17;;;;;;;;;;5047100;28;20403;-85
2021/12/02 00:21:36;;;;;;;24.55;20.77;;;;;;;;;;5047028;28;20418;-85
2021/12/02 00:24:05;;;;;;;26.95;20.77;;;;;;;;;;5047667;28;20876;-85
2021/12/02 00:26:35;;;;;;;24.20;19.60;;;;;;;;;;5039866;28;20404;-86
2021/12/02 00:29:03;;;;;;;26.05;20.73;;;;;;;;;;5039990;28;20399;-85
2021/12/02 00:31:33;;;;;;;25.30;20.27;;;;;;;;;;5043453;28;20406;-86
2021/12/02 00:34:03;;;;;;;25.08;20.27;;;;;;;;;;5047265;28;20795;-86
2021/12/02 00:36:33;;;;;;;25.92;19.67;;;;;;;;;;5042963;28;20403;-86
2021/12/02 00:39:04;;;;;;;27.30;19.13;;;;;;;;;;5046387;28;20396;-85
2021/12/02 00:41:31;;;;;;;23.67;18.48;;;;;;;;;;5047266;28;20779;-85
2021/12/02 00:44:00;;;;;;;21.50;18.73;;;;;;;;;;5047183;28;20400;-85
2021/12/02 00:46:31;;;;;;;23.40;19.00;;;;;;;;;;5046676;28;20901;-85
2021/12/02 00:49:01;;;;;;;23.97;18.77;;;;;;;;;;5043181;28;20443;-85
2021/12/02 00:51:30;;;;;;;22.27;17.80;;;;;;;;;;5043855;28;20412;-85
2021/12/02 00:54:01;;;;;;;21.88;18.25;;;;;;;;;;5046668;28;20427;-84
2021/12/02 00:56:28;;;;;;;22.70;18.70;;;;;;;;;;5046837;28;20399;-85
2021/12/02 00:58:56;;;;;;;22.27;17.92;;;;;;;;;;5046511;28;20756;-85
2021/12/02 01:01:25;;;;;;;25.13;17.70;;;;;;;;;;5045822;28;20396;-85
2021/12/02 01:03:56;;;;;;;25.50;17.73;;;;;;;;;;5045166;28;20453;-85
2021/12/02 01:06:24;;;;;;;21.50;17.20;;;;;;;;;;5043586;28;20404;-85
2021/12/02 01:08:53;;;;;;;22.85;18.02;;;;;;;;;;5046478;28;20407;-85
2021/12/02 01:11:21;;;;;;;21.77;16.90;;;;;;;;;;5046355;28;20395;-85
2021/12/02 01:13:49;;;;;;;21.50;17.07;;;;;;;;;;5046497;28;20454;-85
2021/12/02 01:16:18;;;;;;;22.58;16.40;;;;;;;;;;5046625;28;20460;-85
2021/12/02 01:18:45;;;;;;;21.95;17.38;;;;;;;;;;5045416;28;20408;-86
2021/12/02 01:21:16;;;;;;;21.70;17.25;;;;;;;;;;5042276;28;20410;-86
2021/12/02 01:23:45;;;;;;;21.65;17.10;;;;;;;;;;5046345;28;20415;-85
2021/12/02 01:26:16;;;;;;;21.00;17.17;;;;;;;;;;5046015;28;20415;-85
2021/12/02 01:28:44;;;;;;;23.45;17.42;;;;;;;;;;5045953;28;20407;-85
2021/12/02 01:31:12;;;;;;;22.25;17.42;;;;;;;;;;5046030;28;20755;-86
2021/12/02 01:33:40;;;;;;;23.35;18.92;;;;;;;;;;5045796;28;20427;-85
2021/12/02 01:36:08;;;;;;;26.40;20.48;;;;;;;;;;5043257;28;20410;-86
2021/12/02 01:38:36;;;;;;;25.08;19.33;;;;;;;;;;5045911;28;20404;-84
2021/12/02 01:41:05;;;;;;;21.70;18.90;;;;;;;;;;5042463;28;20470;-85
2021/12/02 01:43:45;;;;;;;22.92;18.55;;;;;;;;;;5041882;28;20462;-85
2021/12/02 01:46:12;;;;;;;23.58;18.95;;;;;;;;;;5046158;28;20403;-85
2021/12/02 01:48:41;;;;;;;25.35;19.20;;;;;;;;;;5043311;28;20415;-84
2021/12/02 01:51:11;;;;;;;24.73;19.20;;;;;;;;;;5045726;28;20411;-85
2021/12/02 01:53:40;;;;;;;24.85;19.55;;;;;;;;;;5045305;28;20430;-85
2021/12/02 01:56:11;;;;;;;24.47;20.07;;;;;;;;;;5045515;28;20396;-84
2021/12/02 01:58:53;;;;;;;26.73;20.67;;;;;;;;;;5044482;28;20408;-84
2021/12/02 02:01:23;;;;;;;29.15;22.95;;;;;;;;;;5044333;28;20416;-82
2021/12/02 02:03:51;;;;;;;29.80;23.35;;;;;;;;;;5046211;28;20408;-85
2021/12/02 02:06:30;;;;;;;31.25;23.83;;;;;;;;;;5040880;28;20418;-85
2021/12/02 02:08:59;;;;;;;31.45;23.77;;;;;;;;;;5045391;28;20495;-85
2021/12/02 02:11:27;;;;;;;30.27;24.85;;;;;;;;;;5044916;28;20400;-85
2021/12/02 02:13:57;;;;;;;29.02;23.40;;;;;;;;;;5044173;28;20423;-85
2021/12/02 02:16:24;;;;;;;27.50;22.73;;;;;;;;;;5045162;28;20811;-85
2021/12/02 02:18:51;;;;;;;33.05;24.15;;;;;;;;;;5042298;28;20411;-84
2021/12/02 02:21:22;;;;;;;31.15;24.40;;;;;;;;;;5040662;28;20419;-85
2021/12/02 02:23:51;;;;;;;31.42;24.13;;;;;;;;;;5045687;28;20465;-85
2021/12/02 02:26:23;;;;;;;32.47;24.67;;;;;;;;;;5044851;28;20404;-84
2021/12/02 02:28:50;;;;;;;30.17;25.25;;;;;;;;;;5045463;28;20407;-85
2021/12/02 02:31:17;;;;;;;31.52;25.17;;;;;;;;;;5044729;28;21359;-84
2021/12/02 02:33:48;;;;;;;30.02;24.00;;;;;;;;;;5044418;28;20415;-84
2021/12/02 02:36:16;;;;;;;30.67;24.65;;;;;;;;;;5043576;28;20410;-85
2021/12/02 02:38:55;;;;;;;31.58;24.70;;;;;;;;;;5044584;28;20410;-85
2021/12/02 02:41:24;;;;;;;30.30;24.10;;;;;;;;;;5044840;28;20487;-85
2021/12/02 02:43:53;;;;;;;28.75;23.35;;;;;;;;;;5045106;28;20446;-85
2021/12/02 02:46:24;;;;;;;32.90;25.27;;;;;;;;;;5044597;28;20400;-85
2021/12/02 02:48:52;;;;;;;31.02;24.73;;;;;;;;;;5040585;28;20403;-85
2021/12/02 02:51:19;;;;;;;29.53;24.47;;;;;;;;;;5043941;28;20411;-85
2021/12/02 02:53:51;;;;;;;29.20;22.65;;;;;;;;;;5042036;28;20908;-85
2021/12/02 02:56:19;;;;;;;31.80;23.65;;;;;;;;;;5043547;28;20911;-85
2021/12/02 02:59:01;;;;;;;28.27;22.90;;;;;;;;;;5044707;28;20396;-84
2021/12/02 03:04:24;;;;;;;28.05;22.83;;;;;;;;;;5043485;28;20396;-85
2021/12/02 03:06:54;;;;;;;23.77;20.08;;;;;;;;;;5042912;28;20415;-85
2021/12/02 03:09:40;;;;;;;25.35;20.10;;;;;;;;;;5045419;28;20449;-85
2021/12/02 03:12:13;;;;;;;25.77;21.08;;;;;;;;;;5042225;28;20899;-85
2021/12/02 03:14:54;;;;;;;25.35;20.90;;;;;;;;;;5045084;28;20419;-84
2021/12/02 03:17:19;;;;;;;25.55;21.42;;;;;;;;;;5043819;28;20471;-84
2021/12/02 03:19:48;;;;;;;26.88;21.02;;;;;;;;;;5045528;28;20399;-85
2021/12/02 03:22:16;;;;;;;25.43;21.17;;;;;;;;;;5043328;28;20407;-84
2021/12/02 03:24:44;;;;;;;26.65;21.65;;;;;;;;;;5047088;28;20486;-85
2021/12/02 03:27:12;;;;;;;26.52;21.90;;;;;;;;;;5049165;28;20906;-84
2021/12/02 03:29:40;;;;;;;29.58;21.85;;;;;;;;;;5048912;28;20407;-85
2021/12/02 03:32:08;;;;;;;24.77;20.42;;;;;;;;;;5048951;28;20461;-85
2021/12/02 03:34:35;;;;;;;27.25;21.42;;;;;;;;;;5048501;28;20427;-85
2021/12/02 03:37:02;;;;;;;26.27;21.10;;;;;;;;;;5046601;28;20557;-85
2021/12/02 03:39:29;;;;;;;26.52;21.63;;;;;;;;;;5048310;28;21243;-85
2021/12/02 03:41:58;;;;;;;25.08;20.55;;;;;;;;;;5048252;28;20411;-85
2021/12/02 03:44:26;;;;;;;24.17;20.17;;;;;;;;;;5048198;28;20419;-85
2021/12/02 03:46:54;;;;;;;25.35;20.77;;;;;;;;;;5047084;28;20407;-85
2021/12/02 03:49:21;;;;;;;25.10;20.70;;;;;;;;;;5047021;28;20430;-84
2021/12/02 03:51:48;;;;;;;24.87;19.97;;;;;;;;;;5045772;28;20521;-85
2021/12/02 03:54:15;;;;;;;25.48;20.70;;;;;;;;;;5048033;28;20530;-85
2021/12/02 03:56:42;;;;;;;25.92;21.42;;;;;;;;;;5046781;28;20913;-84
2021/12/02 03:59:12;;;;;;;26.77;21.75;;;;;;;;;;5047310;28;20428;-85
2021/12/02 04:01:39;;;;;;;25.50;21.13;;;;;;;;;;5047153;28;20400;-84
2021/12/02 04:04:06;;;;;;;27.67;20.70;;;;;;;;;;5047565;28;20412;-85
2021/12/02 04:06:33;;;;;;;25.48;20.27;;;;;;;;;;5045576;28;20412;-85
2021/12/02 04:09:04;;;;;;;25.67;21.38;;;;;;;;;;5040340;28;20815;-85
2021/12/02 04:11:33;;;;;;;25.88;21.00;;;;;;;;;;5043836;28;20489;-85
2021/12/02 04:14:10;;;;;;;26.45;21.40;;;;;;;;;;5039111;28;20419;-84
2021/12/02 04:16:40;;;;;;;24.27;20.30;;;;;;;;;;5047536;28;20403;-84
2021/12/02 04:19:09;;;;;;;24.83;19.80;;;;;;;;;;5047515;28;20449;-85
2021/12/02 04:21:36;;;;;;;24.40;18.95;;;;;;;;;;5044795;28;20906;-85
2021/12/02 04:24:04;;;;;;;23.05;18.13;;;;;;;;;;5047665;28;20431;-84
2021/12/02 04:26:31;;;;;;;23.38;19.15;;;;;;;;;;5040975;28;20399;-85
2021/12/02 04:28:58;;;;;;;26.23;19.75;;;;;;;;;;5047222;28;21007;-85
2021/12/02 04:31:24;;;;;;;25.67;19.93;;;;;;;;;;5047260;28;20419;-84
2021/12/02 04:33:52;;;;;;;22.58;18.88;;;;;;;;;;5046645;28;20822;-84
2021/12/02 04:36:19;;;;;;;25.13;19.27;;;;;;;;;;5043295;28;20476;-84
2021/12/02 04:38:46;;;;;;;23.80;18.75;;;;;;;;;;5047463;28;20403;-84
2021/12/02 04:41:14;;;;;;;22.50;18.10;;;;;;;;;;5047566;28;20411;-84
2021/12/02 04:43:41;;;;;;;22.02;17.88;;;;;;;;;;5046859;28;20443;-84
2021/12/02 04:46:08;;;;;;;23.42;18.50;;;;;;;;;;5047235;28;20407;-84
2021/12/02 04:48:35;;;;;;;22.73;18.38;;;;;;;;;;5046709;28;20400;-85
2021/12/02 04:51:03;;;;;;;23.92;19.08;;;;;;;;;;5045552;28;20411;-85
2021/12/02 04:53:30;;;;;;;25.58;18.98;;;;;;;;;;5033943;28;20411;-84
2021/12/02 04:55:57;;;;;;;27.27;19.95;;;;;;;;;;5046909;28;20433;-84
2021/12/02 04:58:23;;;;;;;26.77;20.20;;;;;;;;;;5046840;28;20407;-84
2021/12/02 05:00:51;;;;;;;27.88;18.90;;;;;;;;;;5047130;28;20775;-85
2021/12/02 05:03:18;;;;;;;25.95;19.33;;;;;;;;;;5045104;28;20427;-84
2021/12/02 05:05:45;;;;;;;25.50;19.25;;;;;;;;;;5040584;28;20941;-84
2021/12/02 05:08:13;;;;;;;24.05;18.75;;;;;;;;;;5043085;28;20423;-84
2021/12/02 05:10:40;;;;;;;24.40;18.75;;;;;;;;;;5046060;28;20751;-85
2021/12/02 05:13:07;;;;;;;26.17;19.42;;;;;;;;;;5046100;28;20399;-84
2021/12/02 05:15:34;;;;;;;24.35;19.05;;;;;;;;;;5045924;28;20424;-84
2021/12/02 05:18:01;;;;;;;26.10;19.73;;;;;;;;;;5042206;28;20475;-85
2021/12/02 05:20:28;;;;;;;24.95;19.95;;;;;;;;;;5043066;28;20963;-86
2021/12/02 05:22:54;;;;;;;28.52;20.75;;;;;;;;;;5046245;28;20799;-85
2021/12/02 05:25:23;;;;;;;31.90;22.55;;;;;;;;;;5045173;28;20410;-85
2021/12/02 05:27:49;;;;;;;28.65;21.23;;;;;;;;;;5044767;28;20756;-85
2021/12/02 05:30:16;;;;;;;30.65;22.17;;;;;;;;;;5045729;28;20399;-84
2021/12/02 05:32:43;;;;;;;36.72;24.23;;;;;;;;;;5046155;28;20400;-85
2021/12/02 05:35:10;;;;;;;33.85;24.65;;;;;;;;;;5044034;28;20421;-84
2021/12/02 05:37:37;;;;;;;32.00;23.38;;;;;;;;;;5045076;28;20457;-85
2021/12/02 05:40:04;;;;;;;32.70;23.92;;;;;;;;;;5046239;28;20411;-85
2021/12/02 05:42:33;;;;;;;32.92;24.25;;;;;;;;;;5042587;28;20411;-85
2021/12/02 05:45:00;;;;;;;36.30;26.20;;;;;;;;;;5043092;28;20403;-85
2021/12/02 05:47:27;;;;;;;37.42;26.65;;;;;;;;;;5045375;28;20515;-85
2021/12/02 05:49:53;;;;;;;32.35;25.17;;;;;;;;;;5045508;28;20892;-85
2021/12/02 05:52:21;;;;;;;35.87;26.37;;;;;;;;;;5042635;28;20426;-86
2021/12/02 05:54:48;;;;;;;38.33;27.50;;;;;;;;;;5044790;28;20907;-84
2021/12/02 05:57:15;;;;;;;42.15;27.52;;;;;;;;;;5045152;28;20400;-82
2021/12/02 05:59:43;;;;;;;37.35;27.83;;;;;;;;;;5044781;28;20428;-83
2021/12/02 06:02:10;;;;;;;35.83;27.73;;;;;;;;;;5044161;28;20492;-83
2021/12/02 06:04:39;;;;;;;37.28;28.42;;;;;;;;;;5042029;28;20443;-82
2021/12/02 06:07:06;;;;;;;39.35;29.38;;;;;;;;;;5043935;28;20423;-82
2021/12/02 06:09:36;;;;;;;41.13;30.38;;;;;;;;;;5043282;28;20448;-83
2021/12/02 06:12:03;;;;;;;65.23;41.50;;;;;;;;;;5071123;23;20475;-83
2021/12/02 06:14:30;;;;;;;52.03;35.83;;;;;;;;;;5023834;28;20411;-83
2021/12/02 06:16:58;;;;;;;53.00;35.63;;;;;;;;;;5039733;28;20887;-83
2021/12/02 06:19:25;;;;;;;50.63;34.97;;;;;;;;;;5038025;28;20412;-83
2021/12/02 06:21:52;;;;;;;64.85;42.65;;;;;;;;;;5031928;28;20432;-83
2021/12/02 06:24:20;;;;;;;110.90;64.93;;;;;;;;;;5033081;28;20461;-82
2021/12/02 06:26:47;;;;;;;196.40;109.18;;;;;;;;;;5030833;28;20459;-85
2021/12/02 06:29:14;;;;;;;67.77;43.43;;;;;;;;;;5032305;28;20401;-80
2021/12/02 06:31:40;;;;;;;47.78;35.47;;;;;;;;;;5026104;28;20904;-83
2021/12/02 06:34:09;;;;;;;66.25;52.40;;;;;;;;;;5034049;28;20399;-82
2021/12/02 06:36:37;;;;;;;47.03;35.53;;;;;;;;;;5017802;28;20434;-83
2021/12/02 06:39:05;;;;;;;43.03;32.72;;;;;;;;;;5028917;28;20886;-82
2021/12/02 06:41:35;;;;;;;44.10;34.53;;;;;;;;;;5018798;28;20621;-82
2021/12/02 06:44:01;;;;;;;37.88;30.02;;;;;;;;;;5021822;28;20418;-84
2021/12/02 06:46:29;;;;;;;42.85;34.08;;;;;;;;;;5014870;28;20937;-85
2021/12/02 06:48:56;;;;;;;39.70;30.83;;;;;;;;;;5026134;28;20766;-84
2021/12/02 06:51:24;;;;;;;38.15;28.13;;;;;;;;;;5029764;28;20418;-83
2021/12/02 06:53:52;;;;;;;39.17;29.67;;;;;;;;;;5030562;28;20806;-83
2021/12/02 06:56:18;;;;;;;44.35;33.13;;;;;;;;;;5027878;28;20429;-83
2021/12/02 06:58:45;;;;;;;42.03;29.02;;;;;;;;;;5029104;28;21182;-84
2021/12/02 07:01:12;;;;;;;41.33;30.75;;;;;;;;;;5032531;28;20393;-84
2021/12/02 07:03:39;;;;;;;35.85;28.48;;;;;;;;;;5032915;28;20417;-83
2021/12/02 07:06:06;;;;;;;38.83;29.08;;;;;;;;;;5035718;28;20403;-84
2021/12/02 07:08:34;;;;;;;43.83;30.83;;;;;;;;;;5041630;28;20411;-83
2021/12/02 07:11:05;;;;;;;40.42;30.83;;;;;;;;;;5032151;28;20405;-84
2021/12/02 07:13:33;;;;;;;39.90;30.58;;;;;;;;;;5031789;28;20442;-84
2021/12/02 07:16:00;;;;;;;39.33;30.02;;;;;;;;;;5039978;28;20429;-84
2021/12/02 07:18:27;;;;;;;42.03;31.38;;;;;;;;;;5042319;28;20404;-84
2021/12/02 07:20:54;;;;;;;42.45;31.98;;;;;;;;;;5042883;28;20417;-84
2021/12/02 07:23:22;;;;;;;41.72;30.67;;;;;;;;;;5041883;28;20405;-84
2021/12/02 07:25:51;;;;;;;38.20;30.73;;;;;;;;;;5041858;28;20492;-84
2021/12/02 07:28:19;;;;;;;42.15;32.30;;;;;;;;;;5041402;28;20412;-84
2021/12/02 07:30:51;;;;;;;42.05;31.42;;;;;;;;;;5041507;28;20477;-84
2021/12/02 07:33:20;;;;;;;38.83;30.73;;;;;;;;;;5031409;28;20421;-84
2021/12/02 07:35:47;;;;;;;41.78;32.28;;;;;;;;;;5034883;28;20432;-84
2021/12/02 07:38:14;;;;;;;42.13;31.05;;;;;;;;;;5041822;28;20404;-83
2021/12/02 07:40:41;;;;;;;39.40;30.83;;;;;;;;;;5041269;28;21284;-83
2021/12/02 07:43:09;;;;;;;38.25;29.58;;;;;;;;;;5041972;28;20403;-84
2021/12/02 07:45:36;;;;;;;39.05;28.67;;;;;;;;;;5031819;28;20409;-84
2021/12/02 07:48:04;;;;;;;38.22;29.00;;;;;;;;;;5036976;28;20409;-83
2021/12/02 07:50:31;;;;;;;38.28;29.08;;;;;;;;;;5040190;28;20415;-84
2021/12/02 07:53:01;;;;;;;39.55;27.73;;;;;;;;;;5031247;28;20405;-83
2021/12/02 07:55:29;;;;;;;40.58;30.05;;;;;;;;;;5028451;28;20420;-83
2021/12/02 07:57:57;;;;;;;39.08;28.75;;;;;;;;;;5042522;28;20407;-82
2021/12/02 08:00:27;;;;;;;38.42;28.58;;;;;;;;;;5040196;28;20404;-83
2021/12/02 08:02:55;;;;;;;35.87;27.53;;;;;;;;;;5030620;28;20536;-85
2021/12/02 08:05:23;;;;;;;38.77;29.60;;;;;;;;;;5037157;28;20435;-82
2021/12/02 08:07:50;;;;;;;36.67;28.33;;;;;;;;;;5041704;28;20488;-84
2021/12/02 08:10:17;;;;;;;42.42;28.98;;;;;;;;;;5041085;28;20395;-83
2021/12/02 08:12:50;;;;;;;38.47;29.25;;;;;;;;;;5041581;28;20396;-82
2021/12/02 08:15:20;;;;;;;39.13;29.47;;;;;;;;;;5041228;28;20546;-83
2021/12/02 08:17:49;;;;;;;37.80;27.50;;;;;;;;;;5041553;28;20400;-83
2021/12/02 08:20:17;;;;;;;37.77;27.53;;;;;;;;;;5041675;28;20495;-83
2021/12/02 08:22:44;;;;;;;36.45;27.50;;;;;;;;;;5043669;28;20411;-84
2021/12/02 08:25:12;;;;;;;35.63;27.20;;;;;;;;;;5041968;28;20759;-81
2021/12/02 08:27:40;;;;;;;36.17;27.58;;;;;;;;;;5041117;28;20875;-83
2021/12/02 08:30:10;;;;;;;36.35;27.20;;;;;;;;;;5041561;28;20895;-82
2021/12/02 08:32:39;;;;;;;36.25;27.48;;;;;;;;;;5040762;28;20491;-83
2021/12/02 08:35:08;;;;;;;39.22;27.92;;;;;;;;;;5040985;28;20497;-80
2021/12/02 08:37:38;;;;;;;36.72;28.20;;;;;;;;;;5035492;28;20416;-80
2021/12/02 08:40:07;;;;;;;38.67;28.37;;;;;;;;;;5041580;28;20399;-81
2021/12/02 08:42:34;;;;;;;36.17;27.52;;;;;;;;;;5040990;28;20407;-81
2021/12/02 08:45:01;;;;;;;35.72;26.92;;;;;;;;;;5029268;28;20405;-81
2021/12/02 08:47:28;;;;;;;38.17;26.75;;;;;;;;;;5022837;28;20414;-82
2021/12/02 08:49:56;;;;;;;36.17;27.13;;;;;;;;;;5022780;28;20810;-81
2021/12/02 08:52:26;;;;;;;35.78;27.05;;;;;;;;;;5041334;28;20404;-81
2021/12/02 08:54:54;;;;;;;36.20;27.08;;;;;;;;;;5041716;28;20405;-83
2021/12/02 08:57:23;;;;;;;36.80;27.10;;;;;;;;;;5040854;28;20404;-82
2021/12/02 08:59:50;;;;;;;34.38;26.77;;;;;;;;;;5041621;28;20420;-82
2021/12/02 09:02:18;;;;;;;38.05;26.42;;;;;;;;;;5040723;28;20400;-82
2021/12/02 09:04:45;;;;;;;35.10;26.85;;;;;;;;;;5041505;28;20406;-82
2021/12/02 09:07:12;;;;;;;37.75;27.20;;;;;;;;;;5035288;28;20405;-82
2021/12/02 09:09:40;;;;;;;33.15;26.63;;;;;;;;;;5039337;28;20406;-81
2021/12/02 09:12:08;;;;;;;37.95;28.05;;;;;;;;;;5041674;28;20411;-82
2021/12/02 09:14:35;;;;;;;37.22;28.17;;;;;;;;;;5041525;28;20411;-82
2021/12/02 09:17:02;;;;;;;40.38;29.83;;;;;;;;;;5041729;28;20423;-82
2021/12/02 09:19:29;;;;;;;40.05;28.80;;;;;;;;;;5040423;28;20408;-82
2021/12/02 09:21:56;;;;;;;38.78;28.52;;;;;;;;;;5041049;28;20403;-81
2021/12/02 09:24:23;;;;;;;38.80;29.13;;;;;;;;;;5040848;28;20401;-82
2021/12/02 09:26:53;;;;;;;43.53;31.20;;;;;;;;;;5041003;28;20924;-82
2021/12/02 09:29:22;;;;;;;38.42;28.00;;;;;;;;;;5040414;28;20405;-81
2021/12/02 09:31:50;;;;;;;42.38;30.42;;;;;;;;;;5041148;28;20442;-81
2021/12/02 09:34:17;;;;;;;38.33;27.50;;;;;;;;;;5040771;28;20411;-82
2021/12/02 09:36:46;;;;;;;34.33;25.20;;;;;;;;;;5040854;28;20757;-82
2021/12/02 09:39:14;;;;;;;30.33;23.27;;;;;;;;;;5041233;28;21208;-82
2021/12/02 09:41:42;;;;;;;46.35;31.95;;;;;;;;;;5030069;28;20410;-82
2021/12/02 09:44:10;;;;;;;82.70;49.53;;;;;;;;;;5027867;28;20401;-82
2021/12/02 09:46:39;;;;;;;46.70;30.85;;;;;;;;;;5027714;28;20409;-82
2021/12/02 09:49:07;;;;;;;42.92;28.65;;;;;;;;;;5029192;28;20419;-81
2021/12/02 09:51:39;;;;;;;169.30;86.57;;;;;;;;;;5041386;28;20407;-82
2021/12/02 09:54:10;;;;;;;29.97;23.30;;;;;;;;;;5027597;28;20937;-83
2021/12/02 09:56:38;;;;;;;39.83;27.23;;;;;;;;;;5026831;28;20461;-82
2021/12/02 09:59:08;;;;;;;111.93;62.22;;;;;;;;;;5027609;28;20415;-81
2021/12/02 10:01:41;;;;;;;256.25;128.43;;;;;;;;;;5026889;28;20409;-81
2021/12/02 10:04:10;;;;;;;56.80;36.58;;;;;;;;;;5026945;28;20449;-81
2021/12/02 10:06:39;;;;;;;96.07;63.97;;;;;;;;;;5034924;28;20419;-82
2021/12/02 10:09:12;;;;;;;46.10;34.88;;;;;;;;;;5041090;28;21397;-83
2021/12/02 10:11:46;;;;;;;31.35;23.77;;;;;;;;;;5040842;28;20490;-82
2021/12/02 10:14:20;;;;;;;29.20;23.15;;;;;;;;;;5041046;28;20408;-82
2021/12/02 10:16:51;;;;;;;30.60;23.50;;;;;;;;;;5040971;28;20423;-82
2021/12/02 10:19:21;;;;;;;31.17;24.20;;;;;;;;;;5038398;28;20847;-81
2021/12/02 10:21:53;;;;;;;28.98;23.10;;;;;;;;;;5037399;28;20411;-82
2021/12/02 10:24:24;;;;;;;32.03;26.00;;;;;;;;;;5040789;28;20449;-82
2021/12/02 10:26:56;;;;;;;31.43;24.17;;;;;;;;;;5040953;28;20421;-82
2021/12/02 10:29:26;;;;;;;36.28;26.55;;;;;;;;;;5040284;28;20542;-82
2021/12/02 10:32:08;;;;;;;30.13;24.67;;;;;;;;;;5041069;28;20483;-83
2021/12/02 10:34:48;;;;;;;33.53;27.23;;;;;;;;;;5039673;28;20841;-82
2021/12/02 10:37:17;;;;;;;34.67;26.57;;;;;;;;;;5040648;28;20529;-82
2021/12/02 10:39:55;;;;;;;41.40;30.17;;;;;;;;;;5040367;28;20780;-85
2021/12/02 10:42:23;;;;;;;139.70;88.38;;;;;;;;;;5040387;28;20428;-82
2021/12/02 10:44:49;;;;;;;44.15;32.50;;;;;;;;;;5040823;28;20408;-82
2021/12/02 10:47:19;;;;;;;77.50;52.17;;;;;;;;;;5040923;28;20481;-82
2021/12/02 10:49:49;;;;;;;36.40;27.27;;;;;;;;;;5040421;28;20408;-82
2021/12/02 10:52:18;;;;;;;37.85;29.63;;;;;;;;;;5040614;28;20503;-82
2021/12/02 10:54:47;;;;;;;35.33;26.45;;;;;;;;;;5036284;28;20401;-82
2021/12/02 10:57:17;;;;;;;37.47;28.30;;;;;;;;;;5025148;28;20429;-82
2021/12/02 10:59:48;;;;;;;35.05;27.13;;;;;;;;;;5025460;28;20900;-82
2021/12/02 11:02:28;;;;;;;47.15;41.97;;;;;;;;;;5028937;28;20869;-82
2021/12/02 11:04:59;;;;;;;36.38;29.05;;;;;;;;;;5025768;28;20420;-83
2021/12/02 11:07:28;;;;;;;34.17;25.83;;;;;;;;;;5040744;28;20499;-82
2021/12/02 11:09:56;;;;;;;29.92;24.30;;;;;;;;;;5035873;28;20409;-82
2021/12/02 11:12:26;;;;;;;33.15;25.50;;;;;;;;;;5024566;28;20418;-82
2021/12/02 11:14:59;;;;;;;33.38;25.10;;;;;;;;;;5025526;28;20741;-83
2021/12/02 11:17:31;;;;;;;32.55;25.00;;;;;;;;;;5024674;28;20421;-82
2021/12/02 11:20:00;;;;;;;31.27;24.83;;;;;;;;;;5041359;28;20412;-82
2021/12/02 11:22:28;;;;;;;33.80;25.50;;;;;;;;;;5035395;28;20461;-82
2021/12/02 11:24:55;;;;;;;31.02;24.40;;;;;;;;;;5032026;28;20411;-82
2021/12/02 11:27:25;;;;;;;30.25;23.95;;;;;;;;;;5019023;28;20765;-82
2021/12/02 11:30:01;;;;;;;30.60;22.92;;;;;;;;;;5023483;28;20402;-83
2021/12/02 11:32:47;;;;;;;30.90;22.88;;;;;;;;;;5012653;28;20405;-83
2021/12/02 11:35:19;;;;;;;27.42;21.35;;;;;;;;;;5025314;28;20462;-82
2021/12/02 11:37:48;;;;;;;28.63;21.35;;;;;;;;;;5039500;28;20431;-82
2021/12/02 11:40:17;;;;;;;27.08;21.70;;;;;;;;;;5040765;28;20400;-82
2021/12/02 11:42:45;;;;;;;27.80;21.80;;;;;;;;;;5041332;28;20403;-82
2021/12/02 11:45:13;;;;;;;29.30;22.95;;;;;;;;;;5042227;28;20407;-82
2021/12/02 11:47:42;;;;;;;37.63;30.70;;;;;;;;;;5044590;28;20404;-83
2021/12/02 11:50:11;;;;;;;32.03;22.85;;;;;;;;;;5035689;28;20413;-82
2021/12/02 11:52:40;;;;;;;29.63;21.70;;;;;;;;;;5047398;28;20804;-83
2021/12/02 11:55:09;;;;;;;25.95;20.95;;;;;;;;;;5044773;28;20404;-82
2021/12/02 11:57:37;;;;;;;27.63;21.20;;;;;;;;;;5043889;28;20419;-83
2021/12/02 12:00:07;;;;;;;26.75;21.38;;;;;;;;;;5045540;28;20423;-82
2021/12/02 12:02:34;;;;;;;26.92;21.33;;;;;;;;;;5027989;28;20400;-82
2021/12/02 12:05:05;;;;;;;27.77;21.27;;;;;;;;;;5041473;28;20407;-81
2021/12/02 12:07:47;;;;;;;28.73;21.30;;;;;;;;;;5031327;28;20401;-82
2021/12/02 12:10:25;;;;;;;26.00;21.13;;;;;;;;;;5042720;28;20454;-82
2021/12/02 12:12:53;;;;;;;27.77;21.25;;;;;;;;;;5035928;28;20488;-83
2021/12/02 12:15:39;;;;;;;25.77;20.58;;;;;;;;;;5027542;28;20417;-83
2021/12/02 12:18:08;;;;;;;27.65;21.30;;;;;;;;;;5031692;28;20430;-82
2021/12/02 12:21:04;;;;;;;27.50;21.52;;;;;;;;;;5045038;28;20931;-83
2021/12/02 12:23:38;;;;;;;29.77;22.33;;;;;;;;;;5003926;28;21285;-82
2021/12/02 12:26:19;;;;;;;29.10;22.63;;;;;;;;;;5038722;28;20430;-83
2021/12/02 12:29:31;;;;;;;32.70;24.33;;;;;;;;;;5036367;28;20469;-82
2021/12/02 12:32:32;;;;;;;28.75;22.23;;;;;;;;;;5043534;28;20396;-82
2021/12/02 12:35:03;;;;;;;26.75;20.70;;;;;;;;;;5041898;28;20889;-83
2021/12/02 12:37:48;;;;;;;27.13;21.17;;;;;;;;;;5038443;28;20421;-83
2021/12/02 12:40:18;;;;;;;27.05;21.23;;;;;;;;;;5028285;28;21148;-83
2021/12/02 12:42:48;;;;;;;24.30;19.67;;;;;;;;;;5039856;28;20408;-82
2021/12/02 12:45:25;;;;;;;27.08;20.17;;;;;;;;;;5039192;28;20440;-83
2021/12/02 12:47:54;;;;;;;25.60;20.35;;;;;;;;;;5040592;28;20423;-83
2021/12/02 12:50:33;;;;;;;25.42;20.50;;;;;;;;;;5036291;28;21225;-82
2021/12/02 12:53:36;;;;;;;23.70;18.92;;;;;;;;;;5034999;28;20929;-83
2021/12/02 12:56:09;;;;;;;26.97;20.20;;;;;;;;;;5030449;28;20881;-84
2021/12/02 12:58:38;;;;;;;26.08;20.10;;;;;;;;;;5034229;28;20412;-83
2021/12/02 13:01:18;;;;;;;25.70;19.90;;;;;;;;;;5035677;28;20937;-82
2021/12/02 13:04:02;;;;;;;27.37;19.63;;;;;;;;;;5034271;28;20407;-83
2021/12/02 13:06:33;;;;;;;24.27;18.98;;;;;;;;;;5033878;28;20415;-82
2021/12/02 13:09:03;;;;;;;25.30;19.65;;;;;;;;;;5020991;28;20415;-83
2021/12/02 13:11:32;;;;;;;25.60;19.80;;;;;;;;;;5034971;28;20938;-83
2021/12/02 13:14:00;;;;;;;23.40;18.80;;;;;;;;;;5037509;28;20400;-83
2021/12/02 13:16:36;;;;;;;24.05;19.35;;;;;;;;;;5036480;28;20404;-83
2021/12/02 13:19:12;;;;;;;23.80;19.23;;;;;;;;;;5030039;28;20425;-81
2021/12/02 13:21:40;;;;;;;22.45;19.85;;;;;;;;;;5034279;28;20456;-83
2021/12/02 13:24:09;;;;;;;25.95;20.35;;;;;;;;;;5033904;28;20407;-81
2021/12/02 13:26:38;;;;;;;24.58;19.73;;;;;;;;;;5023227;28;20410;-83
2021/12/02 13:29:10;;;;;;;25.65;20.27;;;;;;;;;;5031764;28;20410;-81
2021/12/02 13:31:39;;;;;;;25.83;20.55;;;;;;;;;;5036771;28;20405;-83
2021/12/02 13:34:07;;;;;;;25.15;19.52;;;;;;;;;;5031359;28;20397;-83
2021/12/02 13:36:45;;;;;;;25.25;20.73;;;;;;;;;;5032168;28;20406;-82
2021/12/02 13:39:16;;;;;;;23.73;18.48;;;;;;;;;;5031112;28;20406;-81
2021/12/02 13:41:47;;;;;;;20.60;17.23;;;;;;;;;;5033584;28;20914;-82
2021/12/02 13:44:17;;;;;;;20.85;15.93;;;;;;;;;;5035511;28;20455;-82
2021/12/02 13:46:56;;;;;;;17.75;15.10;;;;;;;;;;5033190;28;20409;-82
2021/12/02 13:49:26;;;;;;;19.25;16.35;;;;;;;;;;5032223;28;20419;-82
2021/12/02 13:54:46;;;;;;;20.45;16.25;;;;;;;;;;5028791;28;20393;-82
2021/12/02 13:57:29;;;;;;;21.63;16.02;;;;;;;;;;5041551;28;20455;-82
2021/12/02 13:59:56;;;;;;;20.00;15.75;;;;;;;;;;5024161;28;20469;-82
2021/12/02 14:02:25;;;;;;;21.05;16.73;;;;;;;;;;5034963;28;20416;-82
2021/12/02 14:04:53;;;;;;;21.38;17.13;;;;;;;;;;5024269;28;20418;-81
2021/12/02 14:07:22;;;;;;;19.23;16.07;;;;;;;;;;5027822;28;20406;-82
2021/12/02 14:09:53;;;;;;;19.25;16.42;;;;;;;;;;5024812;28;20417;-82
2021/12/02 14:12:22;;;;;;;20.73;15.57;;;;;;;;;;5024216;28;20492;-82
2021/12/02 14:15:05;;;;;;;18.07;15.43;;;;;;;;;;5024924;28;20412;-83
2021/12/02 14:17:34;;;;;;;19.38;15.52;;;;;;;;;;5024330;28;20429;-83
2021/12/02 14:20:07;;;;;;;18.90;16.25;;;;;;;;;;5024476;28;20409;-83
2021/12/02 14:22:36;;;;;;;20.80;16.73;;;;;;;;;;5040587;28;20879;-83
2021/12/02 14:25:08;;;;;;;22.77;18.85;;;;;;;;;;5044634;28;20410;-83
2021/12/02 14:27:35;;;;;;;25.58;19.58;;;;;;;;;;5043887;28;20459;-83
2021/12/02 14:30:17;;;;;;;23.15;18.80;;;;;;;;;;5044452;28;20391;-82
2021/12/02 14:32:45;;;;;;;23.05;19.02;;;;;;;;;;5043994;28;20937;-83
2021/12/02 14:35:14;;;;;;;21.92;17.50;;;;;;;;;;5040331;28;20400;-83
2021/12/02 14:37:43;;;;;;;21.00;17.48;;;;;;;;;;5030417;28;20420;-83
2021/12/02 14:40:14;;;;;;;21.85;17.25;;;;;;;;;;5024112;28;20416;-83